createdAt,value
2023-02-09T00:01:15.340Z,5.00
2023-02-09T00:03:46.054Z,4.80
2023-02-09T00:06:17.513Z,5.80
2023-02-09T00:08:45.271Z,5.05
2023-02-09T00:11:45.424Z,5.38
2023-02-09T00:14:13.962Z,5.30
2023-02-09T00:16:42.282Z,4.97
2023-02-09T00:19:10.754Z,4.95
2023-02-09T00:21:38.812Z,5.15
2023-02-09T00:24:07.608Z,5.13
2023-02-09T00:26:34.937Z,5.30
2023-02-09T00:29:02.845Z,5.40
2023-02-09T00:31:30.620Z,4.93
2023-02-09T00:34:00.703Z,4.93
2023-02-09T00:36:28.887Z,4.80
2023-02-09T00:38:56.600Z,5.15
2023-02-09T00:41:42.347Z,4.30
2023-02-09T00:44:11.573Z,4.53
2023-02-09T00:46:38.981Z,5.05
2023-02-09T00:49:06.804Z,5.05
2023-02-09T00:51:34.325Z,5.32
2023-02-09T00:54:03.981Z,4.90
2023-02-09T00:56:31.322Z,5.13
2023-02-09T00:59:00.362Z,4.78
2023-02-09T01:01:28.097Z,5.13
2023-02-09T01:03:56.343Z,4.70
2023-02-09T01:06:23.675Z,5.30
2023-02-09T01:08:51.240Z,5.35
2023-02-09T01:11:21.288Z,5.28
2023-02-09T01:13:49.068Z,5.40
2023-02-09T01:16:17.773Z,4.97
2023-02-09T01:18:45.566Z,4.68
2023-02-09T01:21:18.635Z,4.72
2023-02-09T01:23:47.305Z,5.15
2023-02-09T01:26:17.753Z,4.50
2023-02-09T01:28:49.773Z,4.57
2023-02-09T01:31:29.401Z,5.28
2023-02-09T01:33:58.701Z,4.72
2023-02-09T01:36:29.132Z,5.47
2023-02-09T01:38:58.671Z,4.95
2023-02-09T01:41:26.303Z,4.88
2023-02-09T01:44:19.624Z,5.30
2023-02-09T01:46:48.775Z,4.65
2023-02-09T01:49:18.952Z,5.25
2023-02-09T01:51:51.574Z,4.68
2023-02-09T01:54:24.593Z,4.90
2023-02-09T01:56:58.678Z,4.60
2023-02-09T01:59:27.298Z,4.65
2023-02-09T02:01:54.770Z,4.47
2023-02-09T02:04:22.536Z,4.25
2023-02-09T02:07:01.142Z,4.70
2023-02-09T02:09:29.631Z,4.53
2023-02-09T02:11:57.057Z,4.43
2023-02-09T02:14:35.851Z,4.20
2023-02-09T02:17:14.578Z,4.88
2023-02-09T02:20:15.900Z,4.30
2023-02-09T02:23:20.776Z,4.60
2023-02-09T02:26:08.957Z,4.22
2023-02-09T02:28:42.866Z,4.60
2023-02-09T02:31:35.262Z,4.55
2023-02-09T02:34:40.562Z,4.85
2023-02-09T02:37:25.980Z,4.70
2023-02-09T02:40:20.784Z,4.57
2023-02-09T02:42:48.162Z,4.22
2023-02-09T02:45:39.959Z,4.97
2023-02-09T02:48:32.195Z,4.70
2023-02-09T02:51:08.324Z,4.80
2023-02-09T02:53:40.010Z,4.25
2023-02-09T02:56:18.674Z,4.47
2023-02-09T02:58:49.150Z,4.47
2023-02-09T03:01:22.048Z,4.43
2023-02-09T03:03:51.712Z,4.40
2023-02-09T03:06:19.508Z,4.45
2023-02-09T03:08:50.788Z,4.15
2023-02-09T03:11:21.521Z,4.75
2023-02-09T03:14:04.318Z,4.03
2023-02-09T03:16:49.682Z,3.67
2023-02-09T03:19:16.964Z,4.68
2023-02-09T03:22:09.084Z,4.05
2023-02-09T03:24:50.169Z,4.80
2023-02-09T03:27:32.028Z,4.18
2023-02-09T03:32:28.762Z,4.10
2023-02-09T03:34:59.236Z,4.22
2023-02-09T03:37:26.609Z,4.10
2023-02-09T03:39:54.097Z,3.90
2023-02-09T03:42:21.415Z,4.10
2023-02-09T03:44:48.811Z,4.60
2023-02-09T03:47:16.112Z,4.25
2023-02-09T03:49:45.532Z,4.07
2023-02-09T03:52:14.587Z,4.47
2023-02-09T03:54:41.964Z,4.45
2023-02-09T03:57:10.377Z,3.97
2023-02-09T03:59:38.053Z,4.57
2023-02-09T04:02:07.179Z,4.22
2023-02-09T04:04:35.158Z,3.75
2023-02-09T04:07:02.750Z,4.28
2023-02-09T04:09:30.401Z,4.43
2023-02-09T04:11:57.688Z,4.15
2023-02-09T04:14:26.270Z,4.18
2023-02-09T04:16:53.717Z,4.40
2023-02-09T04:19:21.175Z,4.18
2023-02-09T04:21:48.692Z,4.63
2023-02-09T04:24:21.862Z,4.50
2023-02-09T04:26:49.266Z,4.13
2023-02-09T04:29:16.793Z,3.95
2023-02-09T04:31:44.231Z,4.45
2023-02-09T04:34:11.809Z,4.28
2023-02-09T04:36:39.251Z,4.07
2023-02-09T04:39:06.617Z,4.38
2023-02-09T04:41:34.187Z,3.95
2023-02-09T04:44:01.530Z,3.97
2023-02-09T04:46:28.948Z,4.50
2023-02-09T04:48:56.346Z,4.32
2023-02-09T04:51:23.770Z,4.30
2023-02-09T04:53:51.272Z,4.50
2023-02-09T04:56:18.733Z,4.18
2023-02-09T04:59:07.761Z,4.22
2023-02-09T05:01:35.388Z,4.30
2023-02-09T05:04:02.679Z,3.75
2023-02-09T05:06:30.433Z,3.97
2023-02-09T05:08:57.923Z,4.00
2023-02-09T05:11:25.728Z,4.15
2023-02-09T05:13:53.300Z,4.60
2023-02-09T05:16:23.557Z,4.28
2023-02-09T05:18:51.174Z,3.50
2023-02-09T05:21:18.889Z,3.88
2023-02-09T05:23:46.293Z,4.43
2023-02-09T05:26:13.809Z,4.63
2023-02-09T05:28:41.225Z,4.90
2023-02-09T05:31:08.619Z,4.80
2023-02-09T05:33:35.946Z,4.95
2023-02-09T05:36:09.510Z,4.65
2023-02-09T05:38:37.123Z,4.43
2023-02-09T05:41:06.081Z,3.72
2023-02-09T05:43:33.634Z,4.65
2023-02-09T05:46:01.311Z,4.82
2023-02-09T05:48:29.602Z,4.50
2023-02-09T05:50:57.033Z,4.63
2023-02-09T05:53:24.373Z,22.65
2023-02-09T05:55:51.770Z,18.38
2023-02-09T05:58:19.091Z,6.93
2023-02-09T06:00:46.712Z,4.80
2023-02-09T06:03:14.235Z,4.32
2023-02-09T06:05:44.953Z,4.57
2023-02-09T06:08:12.241Z,4.93
2023-02-09T06:10:39.571Z,4.70
2023-02-09T06:13:07.298Z,5.22
2023-02-09T06:15:34.623Z,4.97
2023-02-09T06:18:02.164Z,5.82
2023-02-09T06:20:29.472Z,5.70
2023-02-09T06:22:56.790Z,5.32
2023-02-09T06:25:24.121Z,4.70
2023-02-09T06:27:51.530Z,5.38
2023-02-09T06:30:19.065Z,4.90
2023-02-09T06:32:46.445Z,5.53
2023-02-09T06:35:13.792Z,4.82
2023-02-09T06:37:41.148Z,4.85
2023-02-09T06:40:08.696Z,5.68
2023-02-09T06:42:44.890Z,5.88
2023-02-09T06:45:17.016Z,5.63
2023-02-09T06:47:47.487Z,5.82
2023-02-09T06:50:18.362Z,5.90
2023-02-09T06:52:46.506Z,6.50
2023-02-09T06:55:14.260Z,6.20
2023-02-09T06:57:41.739Z,5.75
2023-02-09T07:00:11.497Z,5.97
2023-02-09T07:02:38.924Z,5.38
2023-02-09T07:05:06.556Z,5.63
2023-02-09T07:07:33.983Z,5.45
2023-02-09T07:10:02.123Z,6.22
2023-02-09T07:12:29.452Z,6.88
2023-02-09T07:14:56.754Z,6.68
2023-02-09T07:17:24.117Z,6.00
2023-02-09T07:19:51.369Z,5.90
2023-02-09T07:22:18.756Z,6.90
2023-02-09T07:24:46.110Z,6.72
2023-02-09T07:27:13.435Z,7.10
2023-02-09T07:29:41.091Z,7.47
2023-02-09T07:32:08.720Z,8.38
2023-02-09T07:34:36.182Z,7.32
2023-02-09T07:37:04.399Z,7.00
2023-02-09T07:39:32.040Z,6.07
2023-02-09T07:41:59.564Z,5.20
2023-02-09T07:44:42.101Z,4.97
2023-02-09T07:47:09.445Z,4.68
2023-02-09T07:49:36.792Z,5.18
2023-02-09T07:52:04.232Z,4.53
2023-02-09T07:54:31.661Z,4.50
2023-02-09T07:56:59.045Z,5.80
2023-02-09T07:59:26.408Z,6.60
2023-02-09T08:01:53.783Z,5.60
2023-02-09T08:04:21.983Z,5.85
2023-02-09T08:06:49.445Z,6.18
2023-02-09T08:09:16.872Z,6.55
2023-02-09T08:11:51.028Z,6.30
2023-02-09T08:14:26.343Z,6.60
2023-02-09T08:17:17.216Z,6.07
2023-02-09T08:19:47.989Z,5.65
2023-02-09T08:22:17.972Z,5.70
2023-02-09T08:24:45.458Z,6.57
2023-02-09T08:27:12.876Z,6.47
2023-02-09T08:29:40.524Z,6.50
2023-02-09T08:32:07.988Z,6.88
2023-02-09T08:34:35.421Z,7.53
2023-02-09T08:37:02.783Z,7.30
2023-02-09T08:39:30.216Z,7.22
2023-02-09T08:41:57.559Z,7.97
2023-02-09T08:44:24.861Z,7.82
2023-02-09T08:46:52.737Z,7.60
2023-02-09T08:49:20.296Z,7.30
2023-02-09T08:51:47.646Z,7.40
2023-02-09T08:54:15.891Z,7.22
2023-02-09T08:56:44.187Z,7.10
2023-02-09T08:59:12.483Z,6.70
2023-02-09T09:01:40.612Z,7.18
2023-02-09T09:04:08.820Z,6.82
2023-02-09T09:06:36.509Z,6.80
2023-02-09T09:09:04.109Z,7.22
2023-02-09T09:11:31.481Z,7.15
2023-02-09T09:14:01.669Z,6.53
2023-02-09T09:16:29.080Z,7.15
2023-02-09T09:18:56.491Z,7.35
2023-02-09T09:21:23.916Z,6.70
2023-02-09T09:23:51.229Z,6.60
2023-02-09T09:26:18.799Z,7.57
2023-02-09T09:28:49.631Z,6.85
2023-02-09T09:31:18.119Z,7.13
2023-02-09T09:33:45.872Z,7.45
2023-02-09T09:36:14.734Z,7.80
2023-02-09T09:38:45.704Z,7.47
2023-02-09T09:41:25.902Z,7.10
2023-02-09T09:43:54.214Z,7.40
2023-02-09T09:46:31.031Z,7.47
2023-02-09T09:49:00.160Z,7.70
2023-02-09T09:51:42.855Z,7.28
2023-02-09T09:54:22.676Z,7.28
2023-02-09T09:56:52.171Z,6.88
2023-02-09T09:59:23.809Z,6.75
2023-02-09T10:01:55.256Z,7.55
2023-02-09T10:04:22.668Z,7.43
2023-02-09T10:06:59.570Z,7.10
2023-02-09T10:09:42.210Z,6.32
2023-02-09T10:12:28.677Z,6.65
2023-02-09T10:14:56.021Z,6.15
2023-02-09T10:17:23.356Z,6.57
2023-02-09T10:20:07.270Z,6.10
2023-02-09T10:22:34.777Z,6.40
2023-02-09T10:25:03.977Z,6.70
2023-02-09T10:27:31.487Z,6.05
2023-02-09T10:30:20.114Z,6.80
2023-02-09T10:32:47.794Z,6.38
2023-02-09T10:35:41.840Z,6.13
2023-02-09T10:38:17.246Z,6.80
2023-02-09T10:40:47.509Z,6.85
2023-02-09T10:43:27.340Z,6.38
2023-02-09T10:45:57.507Z,6.10
2023-02-09T10:48:27.558Z,5.88
2023-02-09T10:51:06.479Z,5.20
2023-02-09T10:53:40.540Z,5.53
2023-02-09T10:56:23.130Z,5.50
2023-02-09T10:59:13.809Z,6.43
2023-02-09T11:01:44.466Z,5.82
2023-02-09T11:04:21.438Z,6.18
2023-02-09T11:06:56.345Z,5.68
2023-02-09T11:09:34.112Z,6.15
2023-02-09T11:12:01.927Z,5.85
2023-02-09T11:14:29.611Z,6.35
2023-02-09T11:17:09.480Z,5.88
2023-02-09T11:20:23.505Z,6.07
2023-02-09T11:22:54.485Z,5.75
2023-02-09T11:25:27.418Z,6.32
2023-02-09T11:28:18.745Z,5.70
2023-02-09T11:30:46.536Z,5.30
2023-02-09T11:33:45.090Z,5.70
2023-02-09T11:36:40.069Z,5.20
2023-02-09T11:39:14.230Z,5.93
2023-02-09T11:42:17.257Z,5.50
2023-02-09T11:44:52.796Z,5.50
2023-02-09T11:47:33.156Z,5.97
2023-02-09T11:50:05.753Z,5.78
2023-02-09T11:52:44.164Z,5.53
2023-02-09T11:55:31.660Z,5.90
2023-02-09T11:58:12.688Z,6.72
2023-02-09T12:01:04.076Z,5.70
2023-02-09T12:03:39.796Z,6.40
2023-02-09T12:06:07.551Z,5.97
2023-02-09T12:08:57.780Z,6.05
2023-02-09T12:11:37.032Z,6.10
2023-02-09T12:14:24.156Z,6.15
2023-02-09T12:17:02.960Z,5.78
2023-02-09T12:19:30.204Z,5.80
2023-02-09T12:21:57.597Z,6.43
2023-02-09T12:24:33.302Z,5.95
2023-02-09T12:27:00.743Z,6.20
2023-02-09T12:29:39.889Z,6.47
2023-02-09T12:32:10.163Z,6.47
2023-02-09T12:34:42.512Z,6.28
2023-02-09T12:37:12.641Z,6.40
2023-02-09T12:40:04.980Z,6.25
2023-02-09T12:45:35.664Z,6.00
2023-02-09T12:48:09.159Z,6.22
2023-02-09T12:50:42.358Z,6.45
2023-02-09T12:53:21.806Z,6.18
2023-02-09T12:56:07.269Z,6.85
2023-02-09T12:59:06.378Z,6.95
2023-02-09T13:02:07.678Z,6.03
2023-02-09T13:04:40.287Z,6.63
2023-02-09T13:07:21.485Z,6.38
2023-02-09T13:09:49.975Z,6.63
2023-02-09T13:12:22.312Z,6.30
2023-02-09T13:14:50.903Z,5.97
2023-02-09T13:17:57.991Z,6.53
2023-02-09T13:20:28.880Z,6.55
2023-02-09T13:23:13.232Z,6.32
2023-02-09T13:25:40.752Z,6.68
2023-02-09T13:28:26.605Z,6.55
2023-02-09T13:30:54.210Z,6.30
2023-02-09T13:33:44.382Z,7.05
2023-02-09T13:36:30.193Z,7.78
2023-02-09T13:38:58.375Z,7.82
2023-02-09T13:41:38.055Z,7.00
2023-02-09T13:44:19.672Z,6.65
2023-02-09T13:46:58.631Z,6.25
2023-02-09T13:49:28.562Z,6.07
2023-02-09T13:52:16.429Z,7.45
2023-02-09T13:54:44.111Z,6.32
2023-02-09T13:57:20.262Z,6.65
2023-02-09T13:59:47.674Z,6.72
2023-02-09T14:02:24.523Z,6.47
2023-02-09T14:04:59.060Z,6.70
2023-02-09T14:07:31.851Z,7.03
2023-02-09T14:10:06.765Z,6.00
2023-02-09T14:12:55.619Z,6.75
2023-02-09T14:15:50.318Z,6.82
2023-02-09T14:18:31.692Z,6.38
2023-02-09T14:21:13.487Z,6.32
2023-02-09T14:23:43.955Z,6.28
2023-02-09T14:26:14.147Z,7.00
2023-02-09T14:28:45.323Z,6.88
2023-02-09T14:31:22.185Z,6.57
2023-02-09T14:33:55.361Z,7.25
2023-02-09T14:36:34.764Z,7.05
2023-02-09T14:39:17.062Z,6.70
2023-02-09T14:42:00.473Z,7.90
2023-02-09T14:44:29.541Z,7.15
2023-02-09T14:47:00.214Z,7.28
2023-02-09T14:49:28.761Z,7.03
2023-02-09T14:52:13.027Z,6.80
2023-02-09T14:54:47.608Z,7.25
2023-02-09T14:57:15.052Z,7.38
2023-02-09T14:59:42.453Z,7.03
2023-02-09T15:02:19.952Z,6.50
2023-02-09T15:04:47.342Z,7.25
2023-02-09T15:07:22.112Z,8.48
2023-02-09T15:09:50.304Z,8.18
2023-02-09T15:12:28.223Z,7.35
2023-02-09T15:14:59.028Z,7.50
2023-02-09T15:17:29.385Z,8.48
2023-02-09T15:19:58.017Z,8.20
2023-02-09T15:22:26.189Z,7.80
2023-02-09T15:24:54.754Z,8.20
2023-02-09T15:27:32.433Z,8.32
2023-02-09T15:30:03.737Z,7.45
2023-02-09T15:32:32.448Z,8.13
2023-02-09T15:34:59.793Z,7.47
2023-02-09T15:37:33.069Z,8.18
2023-02-09T15:40:13.222Z,8.48
2023-02-09T15:43:00.506Z,8.15
2023-02-09T15:45:48.617Z,8.25
2023-02-09T15:48:16.053Z,8.88
2023-02-09T15:50:46.999Z,8.13
2023-02-09T15:53:18.760Z,7.82
2023-02-09T15:55:46.866Z,8.20
2023-02-09T15:58:17.217Z,8.50
2023-02-09T16:00:44.938Z,8.10
2023-02-09T16:03:17.643Z,8.20
2023-02-09T16:05:47.793Z,8.55
2023-02-09T16:08:24.829Z,8.02
2023-02-09T16:10:56.400Z,8.23
2023-02-09T16:13:23.744Z,8.65
2023-02-09T16:15:51.125Z,8.88
2023-02-09T16:18:19.062Z,7.63
2023-02-09T16:20:50.162Z,8.20
2023-02-09T16:23:22.782Z,8.27
2023-02-09T16:25:51.507Z,9.43
2023-02-09T16:28:20.974Z,8.80
2023-02-09T16:30:59.285Z,8.95
2023-02-09T16:33:26.578Z,8.82
2023-02-09T16:35:56.814Z,9.75
2023-02-09T16:38:25.612Z,9.27
2023-02-09T16:40:54.404Z,8.38
2023-02-09T16:43:22.946Z,8.73
2023-02-09T16:46:02.791Z,8.65
2023-02-09T16:48:34.547Z,9.32
2023-02-09T16:51:02.467Z,9.43
2023-02-09T16:53:33.259Z,9.32
2023-02-09T16:56:10.196Z,9.02
2023-02-09T16:58:38.183Z,9.68
2023-02-09T17:01:17.499Z,9.40
2023-02-09T17:03:54.470Z,9.73
2023-02-09T17:06:24.949Z,10.13
2023-02-09T17:08:53.259Z,9.65
2023-02-09T17:11:26.051Z,9.32
2023-02-09T17:13:54.549Z,9.55
2023-02-09T17:16:25.449Z,9.77
2023-02-09T17:18:56.816Z,8.70
2023-02-09T17:21:31.381Z,9.85
2023-02-09T17:23:58.676Z,8.43
2023-02-09T17:26:28.889Z,9.73
2023-02-09T17:28:56.181Z,9.32
2023-02-09T17:31:26.869Z,10.73
2023-02-09T17:34:00.888Z,9.50
2023-02-09T17:36:29.778Z,9.60
2023-02-09T17:38:59.500Z,9.93
2023-02-09T17:41:38.421Z,10.63
2023-02-09T17:44:43.714Z,10.20
2023-02-09T17:47:17.464Z,10.63
2023-02-09T17:49:45.210Z,10.73
2023-02-09T17:52:17.162Z,10.55
2023-02-09T17:54:45.422Z,10.38
2023-02-09T17:57:15.519Z,10.90
2023-02-09T17:59:43.040Z,10.27
2023-02-09T18:02:18.230Z,11.13
2023-02-09T18:04:46.021Z,11.52
2023-02-09T18:07:20.026Z,10.82
2023-02-09T18:09:47.658Z,11.52
2023-02-09T18:12:29.132Z,11.20
2023-02-09T18:14:56.493Z,11.00
2023-02-09T18:17:23.792Z,10.90
2023-02-09T18:19:51.181Z,12.55
2023-02-09T18:22:19.892Z,13.35
2023-02-09T18:24:47.377Z,13.45
2023-02-09T18:27:17.443Z,12.65
2023-02-09T18:29:44.798Z,13.48
2023-02-09T18:32:15.381Z,13.25
2023-02-09T18:34:43.093Z,12.93
2023-02-09T18:37:10.362Z,12.88
2023-02-09T18:39:40.724Z,14.10
2023-02-09T18:42:14.077Z,12.55
2023-02-09T18:44:41.545Z,13.07
2023-02-09T18:47:10.619Z,14.63
2023-02-09T18:49:38.550Z,13.90
2023-02-09T18:52:06.332Z,13.95
2023-02-09T18:54:33.822Z,12.98
2023-02-09T18:57:01.223Z,14.15
2023-02-09T18:59:30.618Z,14.10
2023-02-09T19:01:59.026Z,13.77
2023-02-09T19:04:26.909Z,14.02
2023-02-09T19:06:54.297Z,14.82
2023-02-09T19:09:21.674Z,14.30
2023-02-09T19:11:49.001Z,14.32
2023-02-09T19:14:45.427Z,15.25
2023-02-09T19:17:18.685Z,14.60
2023-02-09T19:19:49.399Z,15.10
2023-02-09T19:22:19.163Z,14.55
2023-02-09T19:24:48.258Z,14.38
2023-02-09T19:27:18.601Z,15.60
2023-02-09T19:29:46.588Z,15.07
2023-02-09T19:32:15.253Z,17.38
2023-02-09T19:34:43.179Z,15.63
2023-02-09T19:37:12.273Z,14.88
2023-02-09T19:39:41.536Z,14.93
2023-02-09T19:42:09.038Z,15.02
2023-02-09T19:44:36.598Z,14.65
2023-02-09T19:47:04.105Z,14.52
2023-02-09T19:49:32.816Z,14.43
2023-02-09T19:52:01.619Z,14.82
2023-02-09T19:54:28.991Z,14.68
2023-02-09T19:56:56.502Z,15.93
2023-02-09T19:59:24.072Z,16.65
2023-02-09T20:01:51.473Z,16.88
2023-02-09T20:04:18.845Z,15.18
2023-02-09T20:06:49.194Z,15.13
2023-02-09T20:09:16.537Z,15.85
2023-02-09T20:11:43.826Z,15.95
2023-02-09T20:14:12.503Z,15.27
2023-02-09T20:16:40.274Z,15.23
2023-02-09T20:19:10.709Z,15.30
2023-02-09T20:21:38.060Z,15.55
2023-02-09T20:24:09.542Z,15.50
2023-02-09T20:26:39.993Z,14.02
2023-02-09T20:29:07.878Z,14.05
2023-02-09T20:31:37.663Z,13.57
2023-02-09T20:34:07.743Z,14.05
2023-02-09T20:36:36.904Z,13.65
2023-02-09T20:39:06.121Z,13.38
2023-02-09T20:41:33.589Z,14.77
2023-02-09T20:44:19.314Z,14.63
2023-02-09T20:46:58.808Z,15.18
2023-02-09T20:49:36.292Z,14.20
2023-02-09T20:52:03.713Z,14.45
2023-02-09T20:54:32.263Z,15.15
2023-02-09T20:56:59.610Z,13.93
2023-02-09T20:59:26.972Z,15.55
2023-02-09T21:01:54.312Z,15.02
2023-02-09T21:04:21.679Z,14.95
2023-02-09T21:06:49.057Z,15.18
2023-02-09T21:09:19.077Z,15.40
2023-02-09T21:11:46.510Z,16.63
2023-02-09T21:14:22.011Z,17.30
2023-02-09T21:17:00.032Z,15.93
2023-02-09T21:19:27.477Z,17.00
2023-02-09T21:21:54.914Z,17.90
2023-02-09T21:24:22.386Z,16.08
2023-02-09T21:26:49.786Z,17.10
2023-02-09T21:29:19.257Z,17.50
2023-02-09T21:31:46.674Z,17.98
2023-02-09T21:34:17.314Z,16.98
2023-02-09T21:36:44.631Z,17.02
2023-02-09T21:39:12.887Z,16.40
2023-02-09T21:41:58.449Z,15.88
2023-02-09T21:44:25.864Z,16.27
2023-02-09T21:46:54.074Z,17.35
2023-02-09T21:49:21.617Z,18.15
2023-02-09T21:51:49.292Z,18.90
2023-02-09T21:54:18.392Z,18.77
2023-02-09T21:56:45.791Z,21.08
2023-02-09T21:59:15.285Z,18.08
2023-02-09T22:01:43.171Z,18.00
2023-02-09T22:04:10.764Z,17.02
2023-02-09T22:06:38.052Z,16.48
2023-02-09T22:09:06.352Z,16.63
2023-02-09T22:11:34.120Z,15.75
2023-02-09T22:14:01.881Z,16.80
2023-02-09T22:16:29.648Z,16.98
2023-02-09T22:18:58.505Z,16.50
2023-02-09T22:21:26.199Z,16.27
2023-02-09T22:23:53.773Z,16.92
2023-02-09T22:26:21.470Z,17.30
2023-02-09T22:28:48.915Z,18.15
2023-02-09T22:31:18.780Z,15.60
2023-02-09T22:33:46.637Z,18.10
2023-02-09T22:36:16.955Z,17.33
2023-02-09T22:38:45.253Z,18.13
2023-02-09T22:41:24.228Z,17.17
2023-02-09T22:43:56.077Z,16.83
2023-02-09T22:46:38.050Z,18.25
2023-02-09T22:51:35.893Z,15.93
2023-02-09T22:54:05.222Z,16.30
2023-02-09T22:56:32.856Z,16.30
2023-02-09T22:59:01.510Z,15.40
2023-02-09T23:01:29.572Z,16.17
2023-02-09T23:03:57.288Z,15.40
2023-02-09T23:06:27.668Z,15.73
2023-02-09T23:08:57.107Z,15.70
2023-02-09T23:11:24.847Z,15.75
2023-02-09T23:14:07.052Z,15.88
2023-02-09T23:16:35.820Z,16.50
2023-02-09T23:19:06.126Z,16.17
2023-02-09T23:21:36.468Z,16.50
2023-02-09T23:24:04.682Z,15.35
2023-02-09T23:26:32.567Z,15.23
2023-02-09T23:29:02.554Z,15.20
2023-02-09T23:31:30.430Z,15.65
2023-02-09T23:33:57.905Z,15.43
2023-02-09T23:36:27.851Z,14.98
2023-02-09T23:38:57.602Z,14.50
2023-02-09T23:41:26.175Z,14.88
2023-02-09T23:43:54.308Z,13.48
2023-02-09T23:46:28.703Z,14.68
2023-02-09T23:48:57.072Z,15.95
2023-02-09T23:51:28.555Z,14.48
2023-02-09T23:53:58.958Z,14.60
2023-02-09T23:56:26.923Z,14.57
2023-02-09T23:58:54.653Z,14.77
